Météo Nord-Pas-de-Calais   La météo au plus près de chez vous

Station météorologique

Observations météo à Chastreix (63098)

63098001 1385 m Dernier relevé à 05:12
19.7°C
Humidité 43 % Vent 4.7 km/h

Journée consultée

Dimanche 6 Septembre 2026

Synthèse de la journée

Périodes de référence en UTC

Température maximale

23.3°C

à 17:00

06h 06h

Température minimale

15.8°C

à 21:54

18h 18h

Rafale maximale

15 km/h

à 03:30

00h 00h

Précipitations

0 mm

Cumul quotidien

06h 06h

Ensoleillement

0h 0 mins

Durée quotidienne

00h 00h

Graphiques de la journée

Heure locale Réduire

Données détaillées

Relevés météo

Pas de 6 minutes Afficher les relevés infra-horaires
Relevés météo détaillés à Chastreix pour le Dimanche 6 Septembre 2026
Heure Température °C Point de rosée °C Humidité % Vent moyen (raf.), km/h Précipitations mm Hauteur neige cm Ensoleillement min Rayonnement global W/m²
05:12 19.7 °C 6.4 °C 42 % 6 km/h (10 km/h) 0 mm0 mm 0 cm 0 min 0 W/m²
05:06 19.5 °C 6.6 °C 43 % 6 km/h (10 km/h) 0 mm0 mm 0 cm 0 min 0 W/m²
05:00 18.7 °C 6.5 °C 45 % 8 km/h (10 km/h) 0 mm0 mm 0 cm 0 min 0 W/m²
04:54 18.3 °C 6.2 °C 45 % 7 km/h (10 km/h) 0 mm0 mm 0 cm 0 min 0 W/m²
04:48 18.4 °C 5.9 °C 44 % 5 km/h (8 km/h) 0 mm0 mm 0 cm 0 min 0 W/m²
04:42 18.5 °C 6.3 °C 45 % 4 km/h (8 km/h) 0 mm0 mm 0 cm 0 min 0 W/m²
04:36 18.2 °C 5.4 °C 43 % 4 km/h (6 km/h) 0 mm0 mm 0 cm 0 min 0 W/m²
04:30 18.2 °C 5.7 °C 44 % 4 km/h (7 km/h) 0 mm0 mm 0 cm 0 min 0 W/m²
04:24 18.4 °C 5.6 °C 43 % 4 km/h (7 km/h) 0 mm0 mm 0 cm 0 min 0 W/m²
04:18 18.5 °C 5.7 °C 43 % 4 km/h (8 km/h) 0 mm0 mm 0 cm 0 min 0 W/m²
04:12 18.7 °C 5.9 °C 43 % 5 km/h (11 km/h) 0 mm0 mm 0 cm 0 min 0 W/m²
04:06 18.5 °C 5.3 °C 42 % 4 km/h (11 km/h) 0 mm0 mm 0 cm 0 min 0 W/m²
04:00 19.2 °C 6 °C 42 % 3 km/h (8 km/h) 0 mm0 mm 0 cm 0 min 0 W/m²
03:54 19.5 °C 6.2 °C 42 % 6 km/h (11 km/h) 0 mm0 mm 0 cm 0 min 0 W/m²
03:48 19.3 °C 6.4 °C 43 % 9 km/h (12 km/h) 0 mm0 mm 0 cm 0 min 0 W/m²
03:42 18.8 °C 6.3 °C 44 % 9 km/h (13 km/h) 0 mm0 mm 0 cm 0 min 0 W/m²
03:36 18.7 °C 6.5 °C 45 % 11 km/h (15 km/h) 0 mm0 mm 0 cm 0 min 0 W/m²
03:30 18.8 °C 6.6 °C 45 % 12 km/h (15 km/h) 0 mm0 mm 0 cm 0 min 0 W/m²
03:24 18.6 °C 6.4 °C 45 % 12 km/h (15 km/h) 0 mm0 mm 0 cm 0 min 0 W/m²
03:18 18.6 °C 6.1 °C 44 % 11 km/h (13 km/h) 0 mm0 mm 0 cm 0 min 0 W/m²
03:12 18.8 °C 5.3 °C 41 % 11 km/h (13 km/h) 0 mm0 mm 0 cm 0 min 0 W/m²
03:06 18.9 °C 4.3 °C 38 % 11 km/h (13 km/h) 0 mm0 mm 0 cm 0 min 0 W/m²
03:00 18.8 °C 4.2 °C 38 % 10 km/h (12 km/h) 0 mm0 mm 0 cm 0 min 0 W/m²
02:54 18.5 °C 4.3 °C 39 % 7 km/h (11 km/h) 0 mm0 mm 0 cm 0 min 0 W/m²
02:48 18.6 °C 4.4 °C 39 % 5 km/h (8 km/h) 0 mm0 mm 0 cm 0 min 0 W/m²
02:42 18.2 °C 4 °C 39 % 5 km/h (8 km/h) 0 mm0 mm 0 cm 0 min 0 W/m²
02:36 18.2 °C 3.6 °C 38 % 5 km/h (8 km/h) 0 mm0 mm 0 cm 0 min 0 W/m²
02:30 18.8 °C 3.8 °C 37 % 4 km/h (8 km/h) 0 mm0 mm 0 cm 0 min 0 W/m²
02:24 18.9 °C 3.9 °C 37 % 4 km/h (6 km/h) 0 mm0 mm 0 cm 0 min 0 W/m²
02:18 19.2 °C 3.8 °C 36 % 5 km/h (8 km/h) 0 mm0 mm 0 cm 0 min 0 W/m²
02:12 19 °C 4 °C 37 % 5 km/h (8 km/h) 0 mm0 mm 0 cm 0 min 0 W/m²
02:06 18.6 °C 4 °C 38 % 5 km/h (6 km/h) 0 mm0 mm 0 cm 0 min 0 W/m²
02:00 18.1 °C 4.3 °C 40 % 5 km/h (8 km/h) 0 mm0 mm 0 cm 0 min 0 W/m²
01:54 18.1 °C 4.6 °C 41 % 6 km/h (9 km/h) 0 mm0 mm 0 cm 0 min 0 W/m²
01:48 18.4 °C 5.6 °C 43 % 6 km/h (9 km/h) 0 mm0 mm 0 cm 0 min 0 W/m²
01:42 17.9 °C 5.1 °C 43 % 5 km/h (8 km/h) 0 mm0 mm 0 cm 0 min 0 W/m²
01:36 19 °C 7.1 °C 46 % 5 km/h (8 km/h) 0 mm0 mm 0 cm 0 min 0 W/m²
01:30 19 °C 7.7 °C 48 % 4 km/h (7 km/h) 0 mm0 mm 0 cm 0 min 0 W/m²
01:24 19 °C 7.7 °C 48 % 5 km/h (8 km/h) 0 mm0 mm 0 cm 0 min 0 W/m²
01:18 18.9 °C 7.3 °C 47 % 6 km/h (10 km/h) 0 mm0 mm 0 cm 0 min 0 W/m²
01:12 18.4 °C 6.2 °C 45 % 6 km/h (10 km/h) 0 mm0 mm 0 cm 0 min 0 W/m²
01:06 18.7 °C 4.5 °C 39 % 5 km/h (8 km/h) 0 mm0 mm 0 cm 0 min 0 W/m²
01:00 18.9 °C 4.3 °C 38 % 4 km/h (8 km/h) 0 mm0 mm 0 cm 0 min 0 W/m²
00:54 18 °C 4.5 °C 41 % 4 km/h (7 km/h) 0 mm0 mm 0 cm 0 min 0 W/m²
00:48 17.9 °C 4.5 °C 41 % 6 km/h (9 km/h) 0 mm0 mm 0 cm 0 min 0 W/m²
00:42 18 °C 5.2 °C 43 % 7 km/h (9 km/h) 0 mm0 mm 0 cm 0 min 0 W/m²
00:36 18.4 °C 6.2 °C 45 % 6 km/h (10 km/h) 0 mm0 mm 0 cm 0 min 0 W/m²
00:30 18.1 °C 7.8 °C 51 % 6 km/h (12 km/h) 0 mm0 mm 0 cm 0 min 0 W/m²
00:24 17.9 °C 9.8 °C 59 % 10 km/h (16 km/h) 0 mm0 mm 0 cm 0 min 0 W/m²
00:18 16.7 °C 9.4 °C 62 % 12 km/h (17 km/h) 0 mm0 mm 0 cm 0 min 0 W/m²
00:12 17.5 °C 11.1 °C 66 % 10 km/h (15 km/h) 0 mm0 mm 0 cm 0 min 0 W/m²
00:06 16.7 °C 10.5 °C 67 % 9 km/h (15 km/h) 0 mm0 mm 0 cm 0 min 0 W/m²
00:00 16.9 °C 10.7 °C 67 % 8 km/h (11 km/h) 0 mm0 mm 0 cm 0 min 0 W/m²

Données via Météo-France

Relevés météo à Chastreix

Cette page rassemble les observations de la station de Chastreix : température, humidité, vent, précipitations et pression atmosphérique. Les graphiques facilitent le suivi de la journée, tandis que le tableau donne accès aux mesures horaires et infra-horaires disponibles.

Pour replacer ces mesures dans leur contexte, consultez la climatologie de Chastreix ainsi que ses normales et records. Retrouvez aussi la carte des observations météo en temps réel.